Clipper Vision — V7JC4 — position and weather

sailwx.info

Track history (hours):
 
Tides and Currents Weather Stations Pressure Air Temp Water Temp Dewpoint Dewpoint Depression Visibility Wind Speed Wind Dir Waves Ship Positions

Clipper Vision

Last reported at 2018-Jun-22 05:29 UTC. Time now 2018-Jun-22 05:34 UTC.
Position N 30°27' W 014°40'.

Length 225 m; draft 14.5 m.

Type: Cargo ship. MMSI: 538006031.

Date/timePositionNaut miles runAvg speedWind from/ knotsBaromVisibWave heightAir tempDewpointWater temp
2018-Jun-22 05:29N 30°27' W 014°40'710.7
2018-Jun-22 04:49N 30°20' W 014°42'310.7
2018-Jun-22 04:30N 30°17' W 014°43'510.6
2018-Jun-22 04:00N 30°12' W 014°45'610.6
2018-Jun-22 03:23N 30°06' W 014°47'410.6
2018-Jun-22 03:00N 30°02' W 014°48'510.4
2018-Jun-22 02:30N 29°57' W 014°49'710.4
2018-Jun-22 01:51N 29°50' W 014°51'310.2
2018-Jun-22 01:30N 29°47' W 014°53'510.3
2018-Jun-22 01:00N 29°42' W 014°54'510.2
2018-Jun-22 00:30N 29°37' W 014°56'610.3
2018-Jun-21 23:56N 29°31' W 014°58'410.3
2018-Jun-21 23:30N 29°27' W 014°59'510.3
2018-Jun-21 23:00N 29°22' W 015°00'610.3
2018-Jun-21 22:28N 29°17' W 015°02'510.2
2018-Jun-21 21:59N 29°12' W 015°03'510.3
2018-Jun-21 21:30N 29°07' W 015°05'510.2
2018-Jun-21 21:00N 29°02' W 015°06'510.3
2018-Jun-21 20:30N 28°57' W 015°08'510.3
2018-Jun-21 20:00N 28°52' W 015°09'510.5
2018-Jun-21 19:30N 28°47' W 015°11'510.7
2018-Jun-21 19:00N 28°42' W 015°12'510.6
2018-Jun-21 18:30N 28°37' W 015°14'510.5
2018-Jun-21 18:00N 28°32' W 015°15'510.4
2018-Jun-21 17:30N 28°27' W 015°17'510.1
2018-Jun-21 17:00N 28°22' W 015°18'510.2
2018-Jun-21 16:29N 28°17' W 015°20'510.3
2018-Jun-21 16:00N 28°12' W 015°21'4 9.1
2018-Jun-21 15:30N 28°08' W 015°23'1 2.7
2018-Jun-21 15:00N 28°07' W 015°25'0 0.1
2018-Jun-21 14:23N 28°07' W 015°25'0 0.0
2018-Jun-21 13:53N 28°07' W 015°25'0 0.0
2018-Jun-21 13:26N 28°07' W 015°25'0 0.0
2018-Jun-21 12:56N 28°07' W 015°25'0 0.0
2018-Jun-21 12:26N 28°07' W 015°25'0 0.0
2018-Jun-21 11:56N 28°07' W 015°25'0 0.0
2018-Jun-21 11:26N 28°07' W 015°25'0 0.0
2018-Jun-21 10:59N 28°07' W 015°25'0 0.0
2018-Jun-21 10:29N 28°07' W 015°25'0 0.1
2018-Jun-21 09:59N 28°07' W 015°25'0 0.1
2018-Jun-21 09:29N 28°07' W 015°25'0 0.1
2018-Jun-21 08:44N 28°07' W 015°25'0 0.0
2018-Jun-21 08:29N 28°07' W 015°25'0 0.1
2018-Jun-21 07:59N 28°07' W 015°25'0 0.1
2018-Jun-21 07:29N 28°07' W 015°25'0 0.1
2018-Jun-21 06:59N 28°07' W 015°25'0 0.0
2018-Jun-21 06:29N 28°07' W 015°25'0 0.1
2018-Jun-21 05:59N 28°07' W 015°25'0 0.1
2018-Jun-21 05:29N 28°07' W 015°25'0 0.1
2018-Jun-21 04:59N 28°07' W 015°25'0 0.0
2018-Jun-21 04:29N 28°07' W 015°25'0 0.0
2018-Jun-21 03:50N 28°07' W 015°25'0 0.0
2018-Jun-21 03:20N 28°07' W 015°25'0 0.0
2018-Jun-21 02:50N 28°07' W 015°25'0 0.0
2018-Jun-21 02:23N 28°07' W 015°25'0 0.0
2018-Jun-21 01:53N 28°07' W 015°25'0 0.0
2018-Jun-21 01:23N 28°07' W 015°25'0 0.0
2018-Jun-21 00:53N 28°07' W 015°25'0 0.0
2018-Jun-21 00:23N 28°07' W 015°25'0 0.0
2018-Jun-20 23:53N 28°07' W 015°25'0 0.0
2018-Jun-20 23:26N 28°07' W 015°25'0 0.1
2018-Jun-20 22:56N 28°07' W 015°25'0 0.0
2018-Jun-20 22:26N 28°07' W 015°25'0 0.1
2018-Jun-20 21:56N 28°08' W 015°25'0 0.0
2018-Jun-20 21:26N 28°08' W 015°25'0 0.2
2018-Jun-20 21:00N 28°07' W 015°25'1 2.5
2018-Jun-20 20:30N 28°07' W 015°23'4 7.4
2018-Jun-20 20:00N 28°05' W 015°20'4 7.3
2018-Jun-20 19:30N 28°04' W 015°16'2 3.3
2018-Jun-20 19:00N 28°02' W 015°16'5 9.2
2018-Jun-20 18:30N 27°58' W 015°15'5 9.4
2018-Jun-20 18:00N 27°53' W 015°15'5 9.7
2018-Jun-20 17:30N 27°48' W 015°15'5 9.8
2018-Jun-20 16:59N 27°43' W 015°15'5 9.7
2018-Jun-20 16:30N 27°38' W 015°15'5 9.6
2018-Jun-20 15:59N 27°33' W 015°15'5 9.6
2018-Jun-20 15:29N 27°29' W 015°15'  
Track history (hours):
 
Tides and Currents Weather Stations Pressure Air Temp Water Temp Dewpoint Dewpoint Depression Visibility Wind Speed Wind Dir Waves Ship Positions

Clipper Vision

Last reported at 2018-Jun-22 05:29 UTC. Time now 2018-Jun-22 05:34 UTC.
Position N 30°27' W 014°40'.

Length 225 m; draft 14.5 m.

Type: Cargo ship. MMSI: 538006031.

Date/timePositionNaut miles runAvg speedWind from/ knotsBaromVisibWave heightAir tempDewpointWater temp
2018-Jun-22 05:29N 30°27' W 014°40'710.7
2018-Jun-22 04:49N 30°20' W 014°42'310.7
2018-Jun-22 04:30N 30°17' W 014°43'510.6
2018-Jun-22 04:00N 30°12' W 014°45'610.6
2018-Jun-22 03:23N 30°06' W 014°47'410.6
2018-Jun-22 03:00N 30°02' W 014°48'510.4
2018-Jun-22 02:30N 29°57' W 014°49'710.4
2018-Jun-22 01:51N 29°50' W 014°51'310.2
2018-Jun-22 01:30N 29°47' W 014°53'510.3
2018-Jun-22 01:00N 29°42' W 014°54'510.2
2018-Jun-22 00:30N 29°37' W 014°56'610.3
2018-Jun-21 23:56N 29°31' W 014°58'410.3
2018-Jun-21 23:30N 29°27' W 014°59'510.3
2018-Jun-21 23:00N 29°22' W 015°00'610.3
2018-Jun-21 22:28N 29°17' W 015°02'510.2
2018-Jun-21 21:59N 29°12' W 015°03'510.3
2018-Jun-21 21:30N 29°07' W 015°05'510.2
2018-Jun-21 21:00N 29°02' W 015°06'510.3
2018-Jun-21 20:30N 28°57' W 015°08'510.3
2018-Jun-21 20:00N 28°52' W 015°09'510.5
2018-Jun-21 19:30N 28°47' W 015°11'510.7
2018-Jun-21 19:00N 28°42' W 015°12'510.6
2018-Jun-21 18:30N 28°37' W 015°14'510.5
2018-Jun-21 18:00N 28°32' W 015°15'510.4
2018-Jun-21 17:30N 28°27' W 015°17'510.1
2018-Jun-21 17:00N 28°22' W 015°18'510.2
2018-Jun-21 16:29N 28°17' W 015°20'510.3
2018-Jun-21 16:00N 28°12' W 015°21'4 9.1
2018-Jun-21 15:30N 28°08' W 015°23'1 2.7
2018-Jun-21 15:00N 28°07' W 015°25'0 0.1
2018-Jun-21 14:23N 28°07' W 015°25'0 0.0
2018-Jun-21 13:53N 28°07' W 015°25'0 0.0
2018-Jun-21 13:26N 28°07' W 015°25'0 0.0
2018-Jun-21 12:56N 28°07' W 015°25'0 0.0
2018-Jun-21 12:26N 28°07' W 015°25'0 0.0
2018-Jun-21 11:56N 28°07' W 015°25'0 0.0
2018-Jun-21 11:26N 28°07' W 015°25'0 0.0
2018-Jun-21 10:59N 28°07' W 015°25'0 0.0
2018-Jun-21 10:29N 28°07' W 015°25'0 0.1
2018-Jun-21 09:59N 28°07' W 015°25'0 0.1
2018-Jun-21 09:29N 28°07' W 015°25'0 0.1
2018-Jun-21 08:44N 28°07' W 015°25'0 0.0
2018-Jun-21 08:29N 28°07' W 015°25'0 0.1
2018-Jun-21 07:59N 28°07' W 015°25'0 0.1
2018-Jun-21 07:29N 28°07' W 015°25'0 0.1
2018-Jun-21 06:59N 28°07' W 015°25'0 0.0
2018-Jun-21 06:29N 28°07' W 015°25'0 0.1
2018-Jun-21 05:59N 28°07' W 015°25'0 0.1
2018-Jun-21 05:29N 28°07' W 015°25'0 0.1
2018-Jun-21 04:59N 28°07' W 015°25'0 0.0
2018-Jun-21 04:29N 28°07' W 015°25'0 0.0
2018-Jun-21 03:50N 28°07' W 015°25'0 0.0
2018-Jun-21 03:20N 28°07' W 015°25'0 0.0
2018-Jun-21 02:50N 28°07' W 015°25'0 0.0
2018-Jun-21 02:23N 28°07' W 015°25'0 0.0
2018-Jun-21 01:53N 28°07' W 015°25'0 0.0
2018-Jun-21 01:23N 28°07' W 015°25'0 0.0
2018-Jun-21 00:53N 28°07' W 015°25'0 0.0
2018-Jun-21 00:23N 28°07' W 015°25'0 0.0
2018-Jun-20 23:53N 28°07' W 015°25'0 0.0
2018-Jun-20 23:26N 28°07' W 015°25'0 0.1
2018-Jun-20 22:56N 28°07' W 015°25'0 0.0
2018-Jun-20 22:26N 28°07' W 015°25'0 0.1
2018-Jun-20 21:56N 28°08' W 015°25'0 0.0
2018-Jun-20 21:26N 28°08' W 015°25'0 0.2
2018-Jun-20 21:00N 28°07' W 015°25'1 2.5
2018-Jun-20 20:30N 28°07' W 015°23'4 7.4
2018-Jun-20 20:00N 28°05' W 015°20'4 7.3
2018-Jun-20 19:30N 28°04' W 015°16'2 3.3
2018-Jun-20 19:00N 28°02' W 015°16'5 9.2
2018-Jun-20 18:30N 27°58' W 015°15'5 9.4
2018-Jun-20 18:00N 27°53' W 015°15'5 9.7
2018-Jun-20 17:30N 27°48' W 015°15'5 9.8
2018-Jun-20 16:59N 27°43' W 015°15'5 9.7
2018-Jun-20 16:30N 27°38' W 015°15'5 9.6
2018-Jun-20 15:59N 27°33' W 015°15'5 9.6
2018-Jun-20 15:29N 27°29' W 015°15'  

Dump ship's entire track history